sensor_id;sensor_type;location;lat;lon;timestamp;P1;durP1;ratioP1;P2;durP2;ratioP2
77055;SDS011;67471;44.918;8.614;2024-03-08T00:03:02;9.45;;;6.47;;
77055;SDS011;67471;44.918;8.614;2024-03-08T00:06:06;10.98;;;6.20;;
77055;SDS011;67471;44.918;8.614;2024-03-08T00:09:10;10.70;;;7.03;;
77055;SDS011;67471;44.918;8.614;2024-03-08T00:12:14;9.80;;;7.07;;
77055;SDS011;67471;44.918;8.614;2024-03-08T00:15:17;9.23;;;7.15;;
77055;SDS011;67471;44.918;8.614;2024-03-08T00:18:21;10.50;;;6.68;;
77055;SDS011;67471;44.918;8.614;2024-03-08T00:21:25;9.60;;;6.43;;
77055;SDS011;67471;44.918;8.614;2024-03-08T00:24:30;15.93;;;7.20;;
77055;SDS011;67471;44.918;8.614;2024-03-08T00:27:34;12.18;;;6.80;;
77055;SDS011;67471;44.918;8.614;2024-03-08T00:30:38;12.40;;;7.10;;
77055;SDS011;67471;44.918;8.614;2024-03-08T00:33:43;10.38;;;7.18;;
77055;SDS011;67471;44.918;8.614;2024-03-08T00:36:47;12.07;;;6.80;;
77055;SDS011;67471;44.918;8.614;2024-03-08T00:39:52;10.18;;;6.40;;
77055;SDS011;67471;44.918;8.614;2024-03-08T00:42:55;9.68;;;7.07;;
77055;SDS011;67471;44.918;8.614;2024-03-08T00:45:59;12.32;;;7.45;;
77055;SDS011;67471;44.918;8.614;2024-03-08T00:49:04;9.57;;;6.95;;
77055;SDS011;67471;44.918;8.614;2024-03-08T00:52:09;10.27;;;6.70;;
77055;SDS011;67471;44.918;8.614;2024-03-08T00:55:12;15.20;;;8.00;;
77055;SDS011;67471;44.918;8.614;2024-03-08T00:58:16;10.85;;;6.80;;
77055;SDS011;67471;44.918;8.614;2024-03-08T01:01:20;7.88;;;6.15;;
77055;SDS011;67471;44.918;8.614;2024-03-08T01:04:24;11.20;;;7.45;;
77055;SDS011;67471;44.918;8.614;2024-03-08T01:07:29;10.35;;;6.75;;
77055;SDS011;67471;44.918;8.614;2024-03-08T01:10:32;11.82;;;6.38;;
77055;SDS011;67471;44.918;8.614;2024-03-08T01:13:36;10.02;;;6.63;;
77055;SDS011;67471;44.918;8.614;2024-03-08T01:16:40;14.18;;;7.18;;
77055;SDS011;67471;44.918;8.614;2024-03-08T01:19:44;13.60;;;7.93;;
77055;SDS011;67471;44.918;8.614;2024-03-08T01:22:48;9.38;;;7.30;;
77055;SDS011;67471;44.918;8.614;2024-03-08T01:25:52;12.32;;;7.00;;
77055;SDS011;67471;44.918;8.614;2024-03-08T01:29:00;11.43;;;6.60;;
77055;SDS011;67471;44.918;8.614;2024-03-08T01:32:06;10.73;;;7.07;;
77055;SDS011;67471;44.918;8.614;2024-03-08T01:35:10;8.95;;;6.85;;
77055;SDS011;67471;44.918;8.614;2024-03-08T01:38:13;13.80;;;7.28;;
77055;SDS011;67471;44.918;8.614;2024-03-08T01:41:17;12.98;;;8.13;;
77055;SDS011;67471;44.918;8.614;2024-03-08T01:44:21;14.18;;;8.10;;
77055;SDS011;67471;44.918;8.614;2024-03-08T01:47:25;12.93;;;8.20;;
77055;SDS011;67471;44.918;8.614;2024-03-08T01:50:29;14.57;;;8.43;;
77055;SDS011;67471;44.918;8.614;2024-03-08T01:53:33;14.13;;;8.45;;
77055;SDS011;67471;44.918;8.614;2024-03-08T01:56:38;13.77;;;8.38;;
77055;SDS011;67471;44.918;8.614;2024-03-08T01:59:42;12.38;;;8.63;;
77055;SDS011;67471;44.918;8.614;2024-03-08T02:02:46;12.82;;;9.30;;
77055;SDS011;67471;44.918;8.614;2024-03-08T02:05:50;16.55;;;9.10;;
77055;SDS011;67471;44.918;8.614;2024-03-08T02:08:54;13.25;;;8.27;;
77055;SDS011;67471;44.918;8.614;2024-03-08T02:11:58;13.88;;;8.70;;
77055;SDS011;67471;44.918;8.614;2024-03-08T02:15:07;16.08;;;9.05;;
77055;SDS011;67471;44.918;8.614;2024-03-08T02:18:11;15.75;;;8.70;;
77055;SDS011;67471;44.918;8.614;2024-03-08T02:21:16;15.93;;;10.07;;
77055;SDS011;67471;44.918;8.614;2024-03-08T02:24:21;13.00;;;9.15;;
77055;SDS011;67471;44.918;8.614;2024-03-08T02:27:27;12.88;;;8.20;;
77055;SDS011;67471;44.918;8.614;2024-03-08T02:30:33;11.50;;;8.02;;
77055;SDS011;67471;44.918;8.614;2024-03-08T02:33:37;10.90;;;7.00;;
77055;SDS011;67471;44.918;8.614;2024-03-08T02:36:40;15.52;;;8.07;;
77055;SDS011;67471;44.918;8.614;2024-03-08T02:39:45;9.48;;;7.70;;
77055;SDS011;67471;44.918;8.614;2024-03-08T02:42:49;13.00;;;9.05;;
77055;SDS011;67471;44.918;8.614;2024-03-08T02:45:52;12.38;;;7.97;;
77055;SDS011;67471;44.918;8.614;2024-03-08T02:48:56;11.75;;;8.25;;
77055;SDS011;67471;44.918;8.614;2024-03-08T02:52:00;15.07;;;8.85;;
77055;SDS011;67471;44.918;8.614;2024-03-08T02:55:05;10.45;;;8.18;;
77055;SDS011;67471;44.918;8.614;2024-03-08T02:58:09;14.30;;;7.75;;
77055;SDS011;67471;44.918;8.614;2024-03-08T03:01:14;11.57;;;7.07;;
77055;SDS011;67471;44.918;8.614;2024-03-08T03:04:18;14.85;;;7.65;;
77055;SDS011;67471;44.918;8.614;2024-03-08T03:07:22;11.63;;;7.40;;
77055;SDS011;67471;44.918;8.614;2024-03-08T03:10:26;13.00;;;7.65;;
77055;SDS011;67471;44.918;8.614;2024-03-08T03:13:30;10.23;;;8.00;;
77055;SDS011;67471;44.918;8.614;2024-03-08T03:16:33;13.23;;;8.05;;
77055;SDS011;67471;44.918;8.614;2024-03-08T03:19:40;10.43;;;6.05;;
77055;SDS011;67471;44.918;8.614;2024-03-08T03:22:46;15.47;;;5.70;;
77055;SDS011;67471;44.918;8.614;2024-03-08T03:25:54;9.27;;;4.53;;
77055;SDS011;67471;44.918;8.614;2024-03-08T03:29:00;6.80;;;4.25;;
77055;SDS011;67471;44.918;8.614;2024-03-08T03:32:06;6.82;;;4.53;;
77055;SDS011;67471;44.918;8.614;2024-03-08T03:35:11;5.60;;;4.50;;
77055;SDS011;67471;44.918;8.614;2024-03-08T03:38:15;6.22;;;4.28;;
77055;SDS011;67471;44.918;8.614;2024-03-08T03:41:18;10.18;;;5.07;;
77055;SDS011;67471;44.918;8.614;2024-03-08T03:44:22;8.75;;;5.15;;
77055;SDS011;67471;44.918;8.614;2024-03-08T03:47:27;8.75;;;4.60;;
77055;SDS011;67471;44.918;8.614;2024-03-08T03:50:30;9.50;;;5.40;;
77055;SDS011;67471;44.918;8.614;2024-03-08T03:53:37;9.43;;;5.93;;
77055;SDS011;67471;44.918;8.614;2024-03-08T03:56:41;8.93;;;6.20;;
77055;SDS011;67471;44.918;8.614;2024-03-08T03:59:45;9.15;;;6.60;;
77055;SDS011;67471;44.918;8.614;2024-03-08T04:02:51;10.77;;;7.03;;
77055;SDS011;67471;44.918;8.614;2024-03-08T04:05:54;8.10;;;6.00;;
77055;SDS011;67471;44.918;8.614;2024-03-08T04:08:58;8.88;;;6.25;;
77055;SDS011;67471;44.918;8.614;2024-03-08T04:12:02;7.80;;;5.80;;
77055;SDS011;67471;44.918;8.614;2024-03-08T04:15:06;8.93;;;5.68;;
77055;SDS011;67471;44.918;8.614;2024-03-08T04:18:10;9.75;;;5.72;;
77055;SDS011;67471;44.918;8.614;2024-03-08T04:21:14;8.68;;;5.68;;
77055;SDS011;67471;44.918;8.614;2024-03-08T04:24:17;10.30;;;5.88;;
77055;SDS011;67471;44.918;8.614;2024-03-08T04:27:21;10.30;;;5.90;;
77055;SDS011;67471;44.918;8.614;2024-03-08T04:30:25;9.70;;;6.32;;
77055;SDS011;67471;44.918;8.614;2024-03-08T04:33:31;7.45;;;5.63;;
77055;SDS011;67471;44.918;8.614;2024-03-08T04:36:35;7.40;;;5.38;;
77055;SDS011;67471;44.918;8.614;2024-03-08T04:39:38;11.40;;;6.55;;
77055;SDS011;67471;44.918;8.614;2024-03-08T04:42:42;9.27;;;5.75;;
77055;SDS011;67471;44.918;8.614;2024-03-08T04:45:46;10.95;;;5.75;;
77055;SDS011;67471;44.918;8.614;2024-03-08T04:48:50;9.07;;;6.03;;
77055;SDS011;67471;44.918;8.614;2024-03-08T04:51:53;9.65;;;6.15;;
77055;SDS011;67471;44.918;8.614;2024-03-08T04:54:57;11.00;;;6.20;;
77055;SDS011;67471;44.918;8.614;2024-03-08T04:58:01;10.52;;;6.07;;
77055;SDS011;67471;44.918;8.614;2024-03-08T05:01:05;8.48;;;5.82;;
77055;SDS011;67471;44.918;8.614;2024-03-08T05:04:08;9.00;;;5.68;;
77055;SDS011;67471;44.918;8.614;2024-03-08T05:07:12;7.32;;;5.13;;
77055;SDS011;67471;44.918;8.614;2024-03-08T05:10:16;8.07;;;5.63;;
77055;SDS011;67471;44.918;8.614;2024-03-08T05:13:22;9.18;;;5.50;;
77055;SDS011;67471;44.918;8.614;2024-03-08T05:16:26;8.45;;;5.07;;
77055;SDS011;67471;44.918;8.614;2024-03-08T05:19:30;9.98;;;5.78;;
77055;SDS011;67471;44.918;8.614;2024-03-08T05:22:34;12.05;;;6.30;;
77055;SDS011;67471;44.918;8.614;2024-03-08T05:25:38;7.95;;;6.07;;
77055;SDS011;67471;44.918;8.614;2024-03-08T05:28:42;10.80;;;8.90;;
77055;SDS011;67471;44.918;8.614;2024-03-08T05:31:50;8.52;;;7.32;;
77055;SDS011;67471;44.918;8.614;2024-03-08T05:34:55;8.82;;;6.40;;
77055;SDS011;67471;44.918;8.614;2024-03-08T05:37:59;8.52;;;6.15;;
77055;SDS011;67471;44.918;8.614;2024-03-08T05:41:02;13.93;;;7.00;;
77055;SDS011;67471;44.918;8.614;2024-03-08T05:44:06;9.32;;;7.63;;
77055;SDS011;67471;44.918;8.614;2024-03-08T05:47:10;9.73;;;6.50;;
77055;SDS011;67471;44.918;8.614;2024-03-08T05:50:14;9.55;;;6.38;;
77055;SDS011;67471;44.918;8.614;2024-03-08T05:53:19;13.93;;;6.35;;
77055;SDS011;67471;44.918;8.614;2024-03-08T05:56:23;9.32;;;6.50;;
77055;SDS011;67471;44.918;8.614;2024-03-08T05:59:27;7.93;;;5.63;;
77055;SDS011;67471;44.918;8.614;2024-03-08T06:02:31;10.82;;;8.30;;
77055;SDS011;67471;44.918;8.614;2024-03-08T06:05:35;9.38;;;6.78;;
77055;SDS011;67471;44.918;8.614;2024-03-08T06:08:39;7.93;;;5.70;;
77055;SDS011;67471;44.918;8.614;2024-03-08T06:11:43;7.18;;;6.38;;
77055;SDS011;67471;44.918;8.614;2024-03-08T06:14:47;11.20;;;7.40;;
77055;SDS011;67471;44.918;8.614;2024-03-08T06:17:51;8.27;;;6.07;;
77055;SDS011;67471;44.918;8.614;2024-03-08T06:20:56;10.63;;;6.38;;
77055;SDS011;67471;44.918;8.614;2024-03-08T06:24:00;9.23;;;6.60;;
77055;SDS011;67471;44.918;8.614;2024-03-08T06:27:04;9.65;;;6.10;;
77055;SDS011;67471;44.918;8.614;2024-03-08T06:30:08;9.63;;;6.35;;
77055;SDS011;67471;44.918;8.614;2024-03-08T06:33:12;8.93;;;6.28;;
77055;SDS011;67471;44.918;8.614;2024-03-08T06:36:16;10.63;;;6.15;;
77055;SDS011;67471;44.918;8.614;2024-03-08T06:39:24;7.93;;;5.33;;
77055;SDS011;67471;44.918;8.614;2024-03-08T06:42:28;9.18;;;5.78;;
77055;SDS011;67471;44.918;8.614;2024-03-08T06:45:33;12.52;;;6.90;;
77055;SDS011;67471;44.918;8.614;2024-03-08T06:48:36;11.10;;;5.72;;
77055;SDS011;67471;44.918;8.614;2024-03-08T06:51:40;9.35;;;6.25;;
77055;SDS011;67471;44.918;8.614;2024-03-08T06:54:44;9.77;;;6.65;;
77055;SDS011;67471;44.918;8.614;2024-03-08T06:57:48;9.00;;;6.80;;
77055;SDS011;67471;44.918;8.614;2024-03-08T07:00:52;13.45;;;5.88;;
77055;SDS011;67471;44.918;8.614;2024-03-08T07:03:56;9.40;;;5.90;;
77055;SDS011;67471;44.918;8.614;2024-03-08T07:07:00;10.80;;;6.03;;
77055;SDS011;67471;44.918;8.614;2024-03-08T07:10:05;10.43;;;6.85;;
77055;SDS011;67471;44.918;8.614;2024-03-08T07:13:14;8.70;;;6.03;;
77055;SDS011;67471;44.918;8.614;2024-03-08T07:16:18;10.77;;;6.25;;
77055;SDS011;67471;44.918;8.614;2024-03-08T07:19:21;8.50;;;5.68;;
77055;SDS011;67471;44.918;8.614;2024-03-08T07:22:26;10.48;;;5.93;;
77055;SDS011;67471;44.918;8.614;2024-03-08T07:25:29;9.23;;;6.00;;
77055;SDS011;67471;44.918;8.614;2024-03-08T07:28:34;11.32;;;6.45;;
77055;SDS011;67471;44.918;8.614;2024-03-08T07:31:38;8.82;;;6.03;;
77055;SDS011;67471;44.918;8.614;2024-03-08T07:34:45;9.02;;;5.65;;
77055;SDS011;67471;44.918;8.614;2024-03-08T07:37:49;6.45;;;5.63;;
77055;SDS011;67471;44.918;8.614;2024-03-08T07:40:53;7.63;;;5.60;;
77055;SDS011;67471;44.918;8.614;2024-03-08T07:43:57;8.32;;;5.90;;
77055;SDS011;67471;44.918;8.614;2024-03-08T07:47:01;11.40;;;6.25;;
77055;SDS011;67471;44.918;8.614;2024-03-08T07:50:05;9.30;;;6.70;;
77055;SDS011;67471;44.918;8.614;2024-03-08T07:53:11;10.40;;;6.20;;
77055;SDS011;67471;44.918;8.614;2024-03-08T07:56:16;10.73;;;6.53;;
77055;SDS011;67471;44.918;8.614;2024-03-08T07:59:21;11.52;;;6.68;;
77055;SDS011;67471;44.918;8.614;2024-03-08T08:02:24;10.90;;;7.55;;
77055;SDS011;67471;44.918;8.614;2024-03-08T08:05:28;10.80;;;7.30;;
77055;SDS011;67471;44.918;8.614;2024-03-08T08:08:32;9.55;;;6.90;;
77055;SDS011;67471;44.918;8.614;2024-03-08T08:11:36;13.02;;;7.53;;
77055;SDS011;67471;44.918;8.614;2024-03-08T08:14:40;8.38;;;7.18;;
77055;SDS011;67471;44.918;8.614;2024-03-08T08:17:44;11.68;;;6.93;;
77055;SDS011;67471;44.918;8.614;2024-03-08T08:20:48;10.80;;;7.35;;
77055;SDS011;67471;44.918;8.614;2024-03-08T08:23:51;10.18;;;7.05;;
77055;SDS011;67471;44.918;8.614;2024-03-08T08:26:55;8.55;;;6.70;;
77055;SDS011;67471;44.918;8.614;2024-03-08T08:29:59;13.18;;;7.45;;
77055;SDS011;67471;44.918;8.614;2024-03-08T08:33:04;10.38;;;6.65;;
77055;SDS011;67471;44.918;8.614;2024-03-08T08:36:08;8.27;;;6.72;;
77055;SDS011;67471;44.918;8.614;2024-03-08T08:39:13;14.55;;;7.55;;
77055;SDS011;67471;44.918;8.614;2024-03-08T08:42:16;12.43;;;7.95;;
77055;SDS011;67471;44.918;8.614;2024-03-08T08:45:21;13.35;;;8.32;;
77055;SDS011;67471;44.918;8.614;2024-03-08T08:48:25;12.65;;;9.05;;
77055;SDS011;67471;44.918;8.614;2024-03-08T08:51:28;13.13;;;9.73;;
77055;SDS011;67471;44.918;8.614;2024-03-08T08:54:32;14.05;;;9.35;;
77055;SDS011;67471;44.918;8.614;2024-03-08T08:57:36;15.85;;;10.43;;
77055;SDS011;67471;44.918;8.614;2024-03-08T09:00:40;18.92;;;11.20;;
77055;SDS011;67471;44.918;8.614;2024-03-08T09:03:43;19.23;;;13.88;;
77055;SDS011;67471;44.918;8.614;2024-03-08T09:06:50;21.15;;;14.27;;
77055;SDS011;67471;44.918;8.614;2024-03-08T09:09:53;21.75;;;14.60;;
77055;SDS011;67471;44.918;8.614;2024-03-08T09:13:01;22.17;;;16.08;;
77055;SDS011;67471;44.918;8.614;2024-03-08T09:16:07;25.83;;;17.25;;
77055;SDS011;67471;44.918;8.614;2024-03-08T09:19:14;27.00;;;16.98;;
77055;SDS011;67471;44.918;8.614;2024-03-08T09:22:18;27.55;;;17.02;;
77055;SDS011;67471;44.918;8.614;2024-03-08T09:25:22;27.02;;;17.80;;
77055;SDS011;67471;44.918;8.614;2024-03-08T09:28:26;30.67;;;17.65;;
77055;SDS011;67471;44.918;8.614;2024-03-08T09:31:30;25.55;;;17.52;;
77055;SDS011;67471;44.918;8.614;2024-03-08T09:34:34;23.42;;;16.77;;
77055;SDS011;67471;44.918;8.614;2024-03-08T09:37:38;27.13;;;17.08;;
77055;SDS011;67471;44.918;8.614;2024-03-08T09:40:42;25.63;;;18.17;;
77055;SDS011;67471;44.918;8.614;2024-03-08T09:43:46;33.45;;;20.63;;
77055;SDS011;67471;44.918;8.614;2024-03-08T09:46:50;36.33;;;21.50;;
77055;SDS011;67471;44.918;8.614;2024-03-08T09:49:57;43.15;;;24.63;;
77055;SDS011;67471;44.918;8.614;2024-03-08T09:53:00;35.42;;;23.40;;
77055;SDS011;67471;44.918;8.614;2024-03-08T09:56:06;32.50;;;22.30;;
77055;SDS011;67471;44.918;8.614;2024-03-08T09:59:10;49.00;;;32.50;;
77055;SDS011;67471;44.918;8.614;2024-03-08T10:02:26;44.35;;;27.98;;
77055;SDS011;67471;44.918;8.614;2024-03-08T10:05:32;31.05;;;24.35;;
77055;SDS011;67471;44.918;8.614;2024-03-08T10:08:37;31.83;;;21.77;;
77055;SDS011;67471;44.918;8.614;2024-03-08T10:11:41;29.83;;;21.45;;
77055;SDS011;67471;44.918;8.614;2024-03-08T10:14:45;30.95;;;21.45;;
77055;SDS011;67471;44.918;8.614;2024-03-08T10:17:49;30.85;;;22.15;;
77055;SDS011;67471;44.918;8.614;2024-03-08T10:21:01;30.30;;;20.80;;
77055;SDS011;67471;44.918;8.614;2024-03-08T10:24:09;27.85;;;21.27;;
77055;SDS011;67471;44.918;8.614;2024-03-08T10:27:16;30.48;;;22.08;;
77055;SDS011;67471;44.918;8.614;2024-03-08T10:30:20;28.45;;;20.45;;
77055;SDS011;67471;44.918;8.614;2024-03-08T10:33:24;31.80;;;21.23;;
77055;SDS011;67471;44.918;8.614;2024-03-08T10:36:28;31.30;;;21.63;;
77055;SDS011;67471;44.918;8.614;2024-03-08T10:39:36;34.53;;;23.55;;
77055;SDS011;67471;44.918;8.614;2024-03-08T10:42:43;28.45;;;21.00;;
77055;SDS011;67471;44.918;8.614;2024-03-08T10:46:21;32.63;;;22.50;;
77055;SDS011;67471;44.918;8.614;2024-03-08T10:49:18;29.48;;;21.65;;
77055;SDS011;67471;44.918;8.614;2024-03-08T10:52:33;34.90;;;22.52;;
77055;SDS011;67471;44.918;8.614;2024-03-08T10:55:38;28.13;;;21.13;;
77055;SDS011;67471;44.918;8.614;2024-03-08T10:58:44;27.38;;;20.05;;
77055;SDS011;67471;44.918;8.614;2024-03-08T11:01:49;28.38;;;20.00;;
77055;SDS011;67471;44.918;8.614;2024-03-08T11:04:54;29.75;;;21.15;;
77055;SDS011;67471;44.918;8.614;2024-03-08T11:08:00;27.45;;;20.83;;
77055;SDS011;67471;44.918;8.614;2024-03-08T11:11:04;29.08;;;21.27;;
77055;SDS011;67471;44.918;8.614;2024-03-08T11:14:42;27.20;;;20.50;;
77055;SDS011;67471;44.918;8.614;2024-03-08T11:17:48;27.77;;;19.92;;
77055;SDS011;67471;44.918;8.614;2024-03-08T11:20:55;25.17;;;18.75;;
77055;SDS011;67471;44.918;8.614;2024-03-08T11:24:01;26.65;;;18.17;;
77055;SDS011;67471;44.918;8.614;2024-03-08T11:27:12;32.17;;;19.73;;
77055;SDS011;67471;44.918;8.614;2024-03-08T11:30:16;35.40;;;21.45;;
77055;SDS011;67471;44.918;8.614;2024-03-08T11:33:27;30.25;;;19.88;;
77055;SDS011;67471;44.918;8.614;2024-03-08T11:36:34;29.40;;;16.92;;
77055;SDS011;67471;44.918;8.614;2024-03-08T11:39:46;21.25;;;14.95;;
77055;SDS011;67471;44.918;8.614;2024-03-08T11:42:56;21.45;;;15.05;;
77055;SDS011;67471;44.918;8.614;2024-03-08T11:46:18;21.60;;;14.57;;
77055;SDS011;67471;44.918;8.614;2024-03-08T11:49:23;18.00;;;13.43;;
77055;SDS011;67471;44.918;8.614;2024-03-08T11:52:26;22.00;;;14.75;;
77055;SDS011;67471;44.918;8.614;2024-03-08T11:55:33;20.48;;;14.23;;
77055;SDS011;67471;44.918;8.614;2024-03-08T11:58:39;21.10;;;14.82;;
77055;SDS011;67471;44.918;8.614;2024-03-08T12:01:43;18.92;;;13.95;;
77055;SDS011;67471;44.918;8.614;2024-03-08T12:05:02;20.33;;;13.90;;
77055;SDS011;67471;44.918;8.614;2024-03-08T12:08:19;19.90;;;14.82;;
77055;SDS011;67471;44.918;8.614;2024-03-08T12:11:23;20.58;;;14.38;;
77055;SDS011;67471;44.918;8.614;2024-03-08T12:14:27;23.88;;;16.42;;
77055;SDS011;67471;44.918;8.614;2024-03-08T12:17:31;25.58;;;15.88;;
77055;SDS011;67471;44.918;8.614;2024-03-08T12:20:36;24.95;;;15.43;;
77055;SDS011;67471;44.918;8.614;2024-03-08T12:23:42;22.45;;;14.55;;
77055;SDS011;67471;44.918;8.614;2024-03-08T12:26:46;25.67;;;14.98;;
77055;SDS011;67471;44.918;8.614;2024-03-08T12:29:54;21.77;;;13.80;;
77055;SDS011;67471;44.918;8.614;2024-03-08T12:32:59;24.02;;;14.50;;
77055;SDS011;67471;44.918;8.614;2024-03-08T12:36:03;24.90;;;13.75;;
77055;SDS011;67471;44.918;8.614;2024-03-08T12:39:10;22.00;;;13.80;;
77055;SDS011;67471;44.918;8.614;2024-03-08T12:42:15;25.73;;;15.35;;
77055;SDS011;67471;44.918;8.614;2024-03-08T12:45:19;20.38;;;13.40;;
77055;SDS011;67471;44.918;8.614;2024-03-08T12:48:25;22.08;;;13.95;;
77055;SDS011;67471;44.918;8.614;2024-03-08T12:51:28;25.23;;;14.32;;
77055;SDS011;67471;44.918;8.614;2024-03-08T12:54:33;27.50;;;15.35;;
77055;SDS011;67471;44.918;8.614;2024-03-08T12:57:38;24.67;;;15.38;;
77055;SDS011;67471;44.918;8.614;2024-03-08T13:00:42;23.65;;;15.65;;
77055;SDS011;67471;44.918;8.614;2024-03-08T13:03:46;24.95;;;16.35;;
77055;SDS011;67471;44.918;8.614;2024-03-08T13:06:52;25.02;;;16.02;;
77055;SDS011;67471;44.918;8.614;2024-03-08T13:09:57;27.50;;;16.67;;
77055;SDS011;67471;44.918;8.614;2024-03-08T13:13:02;26.58;;;16.42;;
77055;SDS011;67471;44.918;8.614;2024-03-08T13:16:08;26.45;;;17.90;;
77055;SDS011;67471;44.918;8.614;2024-03-08T13:19:11;26.00;;;15.57;;
77055;SDS011;67471;44.918;8.614;2024-03-08T13:22:15;24.70;;;16.92;;
77055;SDS011;67471;44.918;8.614;2024-03-08T13:25:20;24.50;;;15.23;;
77055;SDS011;67471;44.918;8.614;2024-03-08T13:28:23;23.58;;;15.05;;
77055;SDS011;67471;44.918;8.614;2024-03-08T13:34:43;27.67;;;16.08;;
77055;SDS011;67471;44.918;8.614;2024-03-08T13:40:52;25.05;;;15.43;;
77055;SDS011;67471;44.918;8.614;2024-03-08T13:43:55;27.85;;;16.52;;
77055;SDS011;67471;44.918;8.614;2024-03-08T13:46:59;26.65;;;15.85;;
77055;SDS011;67471;44.918;8.614;2024-03-08T13:50:03;31.77;;;17.25;;
77055;SDS011;67471;44.918;8.614;2024-03-08T13:53:10;26.60;;;16.25;;
77055;SDS011;67471;44.918;8.614;2024-03-08T13:56:14;24.52;;;16.00;;
77055;SDS011;67471;44.918;8.614;2024-03-08T13:59:18;24.90;;;15.95;;
77055;SDS011;67471;44.918;8.614;2024-03-08T14:02:22;25.33;;;14.95;;
77055;SDS011;67471;44.918;8.614;2024-03-08T14:05:28;27.35;;;15.52;;
77055;SDS011;67471;44.918;8.614;2024-03-08T14:08:33;27.90;;;16.27;;
77055;SDS011;67471;44.918;8.614;2024-03-08T14:11:37;28.50;;;16.08;;
77055;SDS011;67471;44.918;8.614;2024-03-08T14:14:41;26.52;;;16.92;;
77055;SDS011;67471;44.918;8.614;2024-03-08T14:17:51;27.80;;;15.38;;
77055;SDS011;67471;44.918;8.614;2024-03-08T14:20:56;25.58;;;15.48;;
77055;SDS011;67471;44.918;8.614;2024-03-08T14:24:00;27.13;;;15.82;;
77055;SDS011;67471;44.918;8.614;2024-03-08T14:27:04;25.55;;;16.05;;
77055;SDS011;67471;44.918;8.614;2024-03-08T14:30:12;25.27;;;15.57;;
77055;SDS011;67471;44.918;8.614;2024-03-08T14:33:16;25.52;;;15.52;;
77055;SDS011;67471;44.918;8.614;2024-03-08T14:36:20;27.77;;;16.58;;
77055;SDS011;67471;44.918;8.614;2024-03-08T14:39:24;28.48;;;16.98;;
77055;SDS011;67471;44.918;8.614;2024-03-08T14:42:29;26.08;;;15.40;;
77055;SDS011;67471;44.918;8.614;2024-03-08T14:45:33;22.95;;;15.27;;
77055;SDS011;67471;44.918;8.614;2024-03-08T14:48:38;22.90;;;14.45;;
77055;SDS011;67471;44.918;8.614;2024-03-08T14:51:42;22.92;;;14.80;;
77055;SDS011;67471;44.918;8.614;2024-03-08T14:54:45;24.35;;;13.88;;
77055;SDS011;67471;44.918;8.614;2024-03-08T14:57:49;20.80;;;13.73;;
77055;SDS011;67471;44.918;8.614;2024-03-08T15:00:54;21.27;;;13.73;;
77055;SDS011;67471;44.918;8.614;2024-03-08T15:03:59;22.92;;;14.35;;
77055;SDS011;67471;44.918;8.614;2024-03-08T15:07:11;29.13;;;17.27;;
77055;SDS011;67471;44.918;8.614;2024-03-08T15:10:15;24.75;;;15.02;;
77055;SDS011;67471;44.918;8.614;2024-03-08T15:13:20;24.02;;;14.95;;
77055;SDS011;67471;44.918;8.614;2024-03-08T15:16:26;25.42;;;15.38;;
77055;SDS011;67471;44.918;8.614;2024-03-08T15:19:29;30.00;;;18.42;;
77055;SDS011;67471;44.918;8.614;2024-03-08T15:22:33;24.48;;;14.35;;
77055;SDS011;67471;44.918;8.614;2024-03-08T15:25:37;21.98;;;14.02;;
77055;SDS011;67471;44.918;8.614;2024-03-08T15:28:42;24.55;;;15.75;;
77055;SDS011;67471;44.918;8.614;2024-03-08T15:31:49;22.20;;;13.35;;
77055;SDS011;67471;44.918;8.614;2024-03-08T15:34:55;20.35;;;13.20;;
77055;SDS011;67471;44.918;8.614;2024-03-08T15:38:00;20.38;;;12.52;;
77055;SDS011;67471;44.918;8.614;2024-03-08T15:41:04;21.55;;;13.60;;
77055;SDS011;67471;44.918;8.614;2024-03-08T15:44:16;20.02;;;13.32;;
77055;SDS011;67471;44.918;8.614;2024-03-08T15:47:19;26.02;;;14.95;;
77055;SDS011;67471;44.918;8.614;2024-03-08T15:50:25;22.63;;;13.18;;
77055;SDS011;67471;44.918;8.614;2024-03-08T15:53:29;22.98;;;13.80;;
77055;SDS011;67471;44.918;8.614;2024-03-08T15:56:35;22.88;;;14.18;;
77055;SDS011;67471;44.918;8.614;2024-03-08T15:59:39;20.40;;;13.90;;
77055;SDS011;67471;44.918;8.614;2024-03-08T16:02:43;19.05;;;12.73;;
77055;SDS011;67471;44.918;8.614;2024-03-08T16:05:46;22.70;;;12.57;;
77055;SDS011;67471;44.918;8.614;2024-03-08T16:08:51;22.45;;;14.23;;
77055;SDS011;67471;44.918;8.614;2024-03-08T16:11:56;23.60;;;13.85;;
77055;SDS011;67471;44.918;8.614;2024-03-08T16:15:01;22.85;;;13.63;;
77055;SDS011;67471;44.918;8.614;2024-03-08T16:18:05;20.38;;;12.88;;
77055;SDS011;67471;44.918;8.614;2024-03-08T16:21:10;24.88;;;13.93;;
77055;SDS011;67471;44.918;8.614;2024-03-08T16:24:15;23.10;;;13.02;;
77055;SDS011;67471;44.918;8.614;2024-03-08T16:27:19;23.45;;;14.10;;
77055;SDS011;67471;44.918;8.614;2024-03-08T16:30:23;22.88;;;14.23;;
77055;SDS011;67471;44.918;8.614;2024-03-08T16:33:27;24.17;;;13.93;;
77055;SDS011;67471;44.918;8.614;2024-03-08T16:36:31;25.52;;;13.82;;
77055;SDS011;67471;44.918;8.614;2024-03-08T16:39:35;21.58;;;13.43;;
77055;SDS011;67471;44.918;8.614;2024-03-08T16:42:39;26.15;;;14.38;;
77055;SDS011;67471;44.918;8.614;2024-03-08T16:45:43;21.73;;;13.90;;
77055;SDS011;67471;44.918;8.614;2024-03-08T16:48:47;26.10;;;13.88;;
77055;SDS011;67471;44.918;8.614;2024-03-08T16:51:51;25.35;;;14.70;;
77055;SDS011;67471;44.918;8.614;2024-03-08T16:54:55;23.05;;;13.60;;
77055;SDS011;67471;44.918;8.614;2024-03-08T16:57:59;24.35;;;14.93;;
77055;SDS011;67471;44.918;8.614;2024-03-08T17:01:03;23.45;;;14.98;;
77055;SDS011;67471;44.918;8.614;2024-03-08T17:04:07;25.05;;;14.02;;
77055;SDS011;67471;44.918;8.614;2024-03-08T17:07:11;26.13;;;15.25;;
77055;SDS011;67471;44.918;8.614;2024-03-08T17:10:15;29.80;;;17.48;;
77055;SDS011;67471;44.918;8.614;2024-03-08T17:13:22;22.25;;;14.13;;
77055;SDS011;67471;44.918;8.614;2024-03-08T17:16:26;25.27;;;15.15;;
77055;SDS011;67471;44.918;8.614;2024-03-08T17:19:30;25.23;;;15.18;;
77055;SDS011;67471;44.918;8.614;2024-03-08T17:22:34;25.25;;;15.73;;
77055;SDS011;67471;44.918;8.614;2024-03-08T17:25:38;31.83;;;19.92;;
77055;SDS011;67471;44.918;8.614;2024-03-08T17:28:43;22.52;;;15.30;;
77055;SDS011;67471;44.918;8.614;2024-03-08T17:31:47;23.30;;;14.40;;
77055;SDS011;67471;44.918;8.614;2024-03-08T17:34:53;24.10;;;15.07;;
77055;SDS011;67471;44.918;8.614;2024-03-08T17:37:57;25.42;;;15.65;;
77055;SDS011;67471;44.918;8.614;2024-03-08T17:41:01;25.63;;;16.60;;
77055;SDS011;67471;44.918;8.614;2024-03-08T17:44:06;26.95;;;16.42;;
77055;SDS011;67471;44.918;8.614;2024-03-08T17:47:12;23.25;;;15.32;;
77055;SDS011;67471;44.918;8.614;2024-03-08T17:50:17;25.95;;;15.85;;
77055;SDS011;67471;44.918;8.614;2024-03-08T17:53:21;25.25;;;15.65;;
77055;SDS011;67471;44.918;8.614;2024-03-08T17:56:25;23.27;;;15.95;;
77055;SDS011;67471;44.918;8.614;2024-03-08T17:59:29;26.05;;;15.77;;
77055;SDS011;67471;44.918;8.614;2024-03-08T18:02:33;23.63;;;16.52;;
77055;SDS011;67471;44.918;8.614;2024-03-08T18:05:38;27.65;;;17.08;;
77055;SDS011;67471;44.918;8.614;2024-03-08T18:08:44;23.67;;;15.95;;
77055;SDS011;67471;44.918;8.614;2024-03-08T18:11:49;24.13;;;15.63;;
77055;SDS011;67471;44.918;8.614;2024-03-08T18:14:53;25.88;;;17.02;;
77055;SDS011;67471;44.918;8.614;2024-03-08T18:17:58;24.13;;;16.27;;
77055;SDS011;67471;44.918;8.614;2024-03-08T18:21:02;24.45;;;16.17;;